Time;durP1;ratioP1;P1;durP2;ratioP2;P2;SDS_P1;SDS_P2;PMS_P1;PMS_P2;Temp;Humidity;BMP_temperature;BMP_pressure;BME280_temperature;BME280_humidity;BME280_pressure;Samples;Min_cycle;Max_cycle;Signal;HPM_P1;HPM_P2
2022/11/08 00:02:42;;;;;;;6.85;3.78;;;;;;;;;;5109081;28;20097;-54
2022/11/08 00:17:27;;;;;;;7.10;4.13;;;;;;;;;;5045954;28;20097;-54
2022/11/08 00:19:57;;;;;;;3.90;3.50;;;;;;;;;;5046188;28;20045;-56
2022/11/08 00:22:54;;;;;;;5.60;4.38;;;;;;;;;;5046422;28;20179;-56
2022/11/08 00:31:41;;;;;;;5.32;3.65;;;;;;;;;;5096684;28;20423;-55
2022/11/08 00:34:13;;;;;;;5.68;3.83;;;;;;;;;;5092333;28;20036;-52
2022/11/08 00:37:11;;;;;;;;;;;;;;;;;;;;;
2022/11/08 00:39:40;;;;;;;6.40;4.47;;;;;;;;;;5108634;28;20064;-56
2022/11/08 00:42:33;;;;;;;4.45;3.95;;;;;;;;;;5108734;28;20028;-54
2022/11/08 00:45:35;;;;;;;6.93;3.83;;;;;;;;;;5062107;28;20057;-54
2022/11/08 00:48:26;;;;;;;6.30;4.25;;;;;;;;;;5108937;28;20088;-57
2022/11/08 00:54:15;;;;;;;6.78;4.32;;;;;;;;;;5107849;28;20043;-53
2022/11/08 00:57:02;;;;;;;5.10;4.38;;;;;;;;;;5112251;28;20079;-56
2022/11/08 00:59:36;;;;;;;5.75;4.00;;;;;;;;;;5112428;28;20035;-54
2022/11/08 01:02:23;;;;;;;;;;;;;;;;;;;;;
2022/11/08 01:11:33;;;;;;;7.82;5.28;;;;;;;;;;5111556;28;20058;-52
2022/11/08 01:14:38;;;;;;;8.63;4.25;;;;;;;;;;5093657;28;20055;-52
2022/11/08 01:26:13;;;;;;;8.82;4.78;;;;;;;;;;5111727;28;20039;-56
2022/11/08 01:28:54;;;;;;;7.18;4.43;;;;;;;;;;5111696;28;20032;-53
2022/11/08 01:31:59;;;;;;;5.85;4.88;;;;;;;;;;5111161;28;20021;-53
2022/11/08 01:34:57;;;;;;;8.48;4.80;;;;;;;;;;5081701;28;20193;-54
2022/11/08 01:40:56;;;;;;;7.68;5.88;;;;;;;;;;5049415;28;20461;-53
2022/11/08 01:43:31;;;;;;;6.15;5.25;;;;;;;;;;5024446;28;20032;-56
2022/11/08 01:46:23;;;;;;;5.65;4.70;;;;;;;;;;5111399;28;20047;-54
2022/11/08 01:49:11;;;;;;;7.00;4.93;;;;;;;;;;5112063;28;20024;-55
2022/11/08 01:51:52;;;;;;;6.65;4.88;;;;;;;;;;5076106;28;20485;-54
2022/11/08 01:54:23;;;;;;;8.10;5.50;;;;;;;;;;5112008;28;20062;-50
2022/11/08 01:56:51;;;;;;;8.50;6.15;;;;;;;;;;5111685;28;20028;-55
2022/11/08 02:02:53;;;;;;;6.40;4.47;;;;;;;;;;5058679;28;20043;-56
2022/11/08 02:05:47;;;;;;;6.93;5.22;;;;;;;;;;5093122;28;20073;-52
2022/11/08 02:08:23;;;;;;;6.70;4.53;;;;;;;;;;5110850;28;20051;-54
2022/11/08 02:11:14;;;;;;;6.47;5.22;;;;;;;;;;5092323;28;20044;-55
2022/11/08 02:13:44;;;;;;;5.80;4.38;;;;;;;;;;5093039;28;20061;-54
2022/11/08 02:16:21;;;;;;;7.65;4.90;;;;;;;;;;5111052;28;20390;-56
2022/11/08 02:19:11;;;;;;;;;;;;;;;;;;;;;
2022/11/08 02:22:22;;;;;;;7.20;4.28;;;;;;;;;;5111424;28;20055;-52
2022/11/08 02:25:17;;;;;;;3.22;2.70;;;;;;;;;;5028555;28;20030;-52
2022/11/08 02:28:20;;;;;;;;;;;;;;;;;;;;;
2022/11/08 02:34:18;;;;;;;;;;;;;;;;;;;;;
2022/11/08 02:37:05;;;;;;;4.00;2.72;;;;;;;;;;5105612;28;20532;-54
2022/11/08 02:39:54;;;;;;;3.80;3.40;;;;;;;;;;5111278;28;20024;-54
2022/11/08 02:42:40;;;;;;;5.15;3.60;;;;;;;;;;5110883;28;20024;-54
2022/11/08 02:45:19;;;;;;;4.05;3.08;;;;;;;;;;5111033;28;20024;-53
2022/11/08 02:51:05;;;;;;;8.25;4.03;;;;;;;;;;5110946;28;20027;-52
2022/11/08 02:53:50;;;;;;;5.40;4.18;;;;;;;;;;5110743;28;20047;-55
2022/11/08 02:56:26;;;;;;;6.78;4.40;;;;;;;;;;5110072;28;20078;-54
2022/11/08 02:59:08;;;;;;;5.75;3.85;;;;;;;;;;5110814;28;20147;-55
2022/11/08 03:01:43;;;;;;;6.85;5.03;;;;;;;;;;5110276;28;20036;-57
2022/11/08 03:04:29;;;;;;;6.22;4.63;;;;;;;;;;5110387;28;20028;-53
2022/11/08 03:07:14;;;;;;;8.27;4.47;;;;;;;;;;5109972;28;20049;-53
2022/11/08 03:10:17;;;;;;;5.97;4.35;;;;;;;;;;5110341;28;20020;-52
2022/11/08 03:13:00;;;;;;;4.82;3.58;;;;;;;;;;5067213;28;20501;-52
2022/11/08 03:15:31;;;;;;;5.38;4.60;;;;;;;;;;5110190;28;20075;-54
2022/11/08 03:18:07;;;;;;;5.82;4.35;;;;;;;;;;5110109;28;20092;-54
2022/11/08 03:20:55;;;;;;;7.47;5.40;;;;;;;;;;5092105;28;20129;-53
2022/11/08 03:23:50;;;;;;;6.82;4.80;;;;;;;;;;5110488;28;20073;-53
2022/11/08 03:26:28;;;;;;;7.38;4.93;;;;;;;;;;5109961;28;20035;-51
2022/11/08 03:32:13;;;;;;;5.63;4.32;;;;;;;;;;5095410;28;20031;-53
2022/11/08 03:35:10;;;;;;;5.20;4.25;;;;;;;;;;5110368;28;20062;-54
2022/11/08 03:44:32;;;;;;;4.72;3.55;;;;;;;;;;5109889;28;20085;-56
2022/11/08 03:47:16;;;;;;;7.60;4.28;;;;;;;;;;5091658;28;20032;-52
2022/11/08 03:50:15;;;;;;;4.85;4.18;;;;;;;;;;5109566;28;20077;-55
2022/11/08 03:52:49;;;;;;;5.60;3.92;;;;;;;;;;5109804;28;20350;-54
2022/11/08 03:59:04;;;;;;;5.53;3.90;;;;;;;;;;5095801;28;20028;-51
2022/11/08 04:07:43;;;;;;;5.68;3.88;;;;;;;;;;5064554;28;20028;-54
2022/11/08 04:15:56;;;;;;;6.03;3.92;;;;;;;;;;5108185;28;20042;-54
2022/11/08 04:27:30;;;;;;;;;;;;;;;;;;;;;
2022/11/08 04:30:24;;;;;;;5.03;3.28;;;;;;;;;;5107343;28;20054;-54
2022/11/08 04:39:41;;;;;;;4.00;3.10;;;;;;;;;;5081244;28;20032;-53
2022/11/08 04:42:45;;;;;;;;;;;;;;;;;;;;;
2022/11/08 04:48:36;;;;;;;3.50;2.92;;;;;;;;;;5083330;28;20035;-54
2022/11/08 04:51:31;;;;;;;8.23;2.97;;;;;;;;;;5076558;28;20168;-53
2022/11/08 04:54:25;;;;;;;4.00;2.80;;;;;;;;;;5098021;28;20454;-53
2022/11/08 05:00:16;;;;;;;3.05;2.33;;;;;;;;;;5011926;28;20080;-51
2022/11/08 05:05:49;;;;;;;3.10;2.28;;;;;;;;;;5012287;28;20037;-55
2022/11/08 05:08:25;;;;;;;2.42;1.88;;;;;;;;;;4994778;28;20541;-56
2022/11/08 05:16:52;;;;;;;4.63;2.45;;;;;;;;;;5070346;28;20032;-55
2022/11/08 05:25:24;;;;;;;3.05;2.28;;;;;;;;;;5093758;28;20423;-51
2022/11/08 05:34:04;;;;;;;5.78;2.42;;;;;;;;;;5031030;28;20139;-57
2022/11/08 05:36:55;;;;;;;;;;;;;;;;;;;;;
2022/11/08 05:39:27;;;;;;;3.95;2.50;;;;;;;;;;5059581;28;20036;-53
2022/11/08 05:48:21;;;;;;;3.90;3.08;;;;;;;;;;5034471;28;20052;-52
2022/11/08 05:51:01;;;;;;;4.00;2.55;;;;;;;;;;5034644;28;20051;-56
2022/11/08 05:56:42;;;;;;;3.30;2.67;;;;;;;;;;5014432;28;20084;-56
2022/11/08 05:59:18;;;;;;;4.15;2.80;;;;;;;;;;5079008;28;20066;-53
2022/11/08 06:02:16;;;;;;;4.97;3.40;;;;;;;;;;5081075;28;20050;-56
2022/11/08 06:08:00;;;;;;;2.88;2.35;;;;;;;;;;5078391;28;20078;-52
2022/11/08 06:10:54;;;;;;;4.22;2.90;;;;;;;;;;5096019;28;20032;-56
2022/11/08 06:13:39;;;;;;;4.57;2.80;;;;;;;;;;5056800;28;20382;-55
2022/11/08 06:19:49;;;;;;;;;;;;;;;;;;;;;
2022/11/08 06:22:44;;;;;;;3.60;2.95;;;;;;;;;;5029720;28;20024;-56
2022/11/08 06:25:29;;;;;;;4.47;3.15;;;;;;;;;;5057263;28;20036;-56
2022/11/08 06:31:16;;;;;;;;;;;;;;;;;;;;;
2022/11/08 06:39:59;;;;;;;3.47;2.28;;;;;;;;;;4973390;28;20134;-55
2022/11/08 06:43:04;;;;;;;4.68;3.33;;;;;;;;;;4988320;28;20050;-56
2022/11/08 06:45:57;;;;;;;3.85;2.53;;;;;;;;;;4987363;28;20045;-54
2022/11/08 06:51:38;;;;;;;4.93;3.20;;;;;;;;;;4995198;28;20061;-55
2022/11/08 06:54:34;;;;;;;9.82;6.35;;;;;;;;;;5088271;28;20032;-51
2022/11/08 06:57:18;;;;;;;5.75;4.70;;;;;;;;;;4982285;28;20111;-56
2022/11/08 07:00:02;;;;;;;9.98;7.18;;;;;;;;;;5088527;28;20064;-54
2022/11/08 07:05:32;;;;;;;7.80;3.80;;;;;;;;;;5086484;28;20082;-57
2022/11/08 07:08:09;;;;;;;6.65;3.40;;;;;;;;;;5087375;28;20021;-54
2022/11/08 07:11:02;;;;;;;5.65;3.38;;;;;;;;;;5069834;28;20021;-54
2022/11/08 07:25:41;;;;;;;4.18;2.70;;;;;;;;;;4992772;28;20043;-55
2022/11/08 07:28:46;;;;;;;8.73;3.00;;;;;;;;;;5035736;28;20048;-53
2022/11/08 07:31:20;;;;;;;11.13;4.45;;;;;;;;;;5036664;28;20067;-55
2022/11/08 07:34:23;;;;;;;6.20;3.50;;;;;;;;;;5046038;28;20052;-54
2022/11/08 07:37:00;;;;;;;6.75;3.47;;;;;;;;;;5005052;28;20048;-54
2022/11/08 07:39:40;;;;;;;9.00;4.40;;;;;;;;;;5004571;28;20047;-55
2022/11/08 07:42:28;;;;;;;8.40;3.50;;;;;;;;;;5002814;28;20484;-55
2022/11/08 07:45:13;;;;;;;6.15;3.65;;;;;;;;;;5003169;28;20030;-56
2022/11/08 07:48:08;;;;;;;6.28;3.72;;;;;;;;;;5004165;28;20098;-54
2022/11/08 07:50:43;;;;;;;4.13;3.30;;;;;;;;;;4989529;28;20502;-53
2022/11/08 07:53:50;;;;;;;6.80;3.83;;;;;;;;;;5004427;28;20053;-56
2022/11/08 07:56:54;;;;;;;4.63;3.97;;;;;;;;;;4982278;28;20103;-56
2022/11/08 07:59:28;;;;;;;5.55;3.97;;;;;;;;;;5003886;28;20062;-52
2022/11/08 08:02:26;;;;;;;4.47;3.28;;;;;;;;;;5003443;28;20143;-55
2022/11/08 08:08:02;;;;;;;3.95;2.95;;;;;;;;;;5043081;28;20033;-56
2022/11/08 08:14:16;;;;;;;4.82;2.63;;;;;;;;;;5008799;28;20049;-57
2022/11/08 08:20:00;;;;;;;4.72;2.35;;;;;;;;;;5033276;28;20104;-58
2022/11/08 08:25:25;;;;;;;5.40;3.00;;;;;;;;;;4994159;28;20077;-54
2022/11/08 08:28:00;;;;;;;6.95;2.65;;;;;;;;;;5044269;28;20041;-55
2022/11/08 08:30:55;;;;;;;5.13;3.38;;;;;;;;;;5042426;28;20029;-54
2022/11/08 08:33:56;;;;;;;5.20;3.25;;;;;;;;;;5029437;28;20050;-53
2022/11/08 08:36:34;;;;;;;5.35;3.22;;;;;;;;;;5032251;28;20025;-56
2022/11/08 08:39:13;;;;;;;5.32;3.03;;;;;;;;;;5015540;28;20529;-55
2022/11/08 08:41:51;;;;;;;3.75;2.38;;;;;;;;;;5031294;28;20088;-55
2022/11/08 08:44:39;;;;;;;8.35;3.13;;;;;;;;;;5057047;28;20072;-55
2022/11/08 08:47:39;;;;;;;;;;;;;;;;;;;;;
2022/11/08 08:53:30;;;;;;;7.13;3.72;;;;;;;;;;5030755;28;20057;-57
2022/11/08 08:59:08;;;;;;;5.88;3.05;;;;;;;;;;5073821;28;20501;-59
2022/11/08 09:07:43;;;;;;;3.60;2.22;;;;;;;;;;5064598;28;20028;-59
2022/11/08 09:10:59;;;;;;;3.85;2.85;;;;;;;;;;5050965;28;20477;-58
2022/11/08 09:13:54;;;;;;;2.92;2.15;;;;;;;;;;5092798;28;20048;-58
2022/11/08 09:16:26;;;;;;;8.38;2.70;;;;;;;;;;5075639;28;20377;-58
2022/11/08 09:19:07;;;;;;;3.50;2.47;;;;;;;;;;5078926;28;20450;-59
2022/11/08 09:22:05;;;;;;;3.92;2.20;;;;;;;;;;5097975;28;20035;-59
2022/11/08 09:24:56;;;;;;;4.32;2.30;;;;;;;;;;5055598;28;20058;-59
2022/11/08 09:31:01;;;;;;;2.83;1.85;;;;;;;;;;5097110;28;20039;-58
2022/11/08 09:33:41;;;;;;;2.75;1.67;;;;;;;;;;5075349;28;20037;-58
2022/11/08 09:36:20;;;;;;;4.85;2.45;;;;;;;;;;5075428;28;20048;-59
2022/11/08 09:39:12;;;;;;;2.58;1.65;;;;;;;;;;5075502;28;20021;-58
2022/11/08 09:48:04;;;;;;;9.02;2.58;;;;;;;;;;5014395;28;20046;-57
2022/11/08 09:51:10;;;;;;;3.60;1.85;;;;;;;;;;5003447;28;20068;-58
2022/11/08 09:53:57;;;;;;;4.47;2.22;;;;;;;;;;4997750;28;20085;-57
2022/11/08 09:56:51;;;;;;;3.03;2.00;;;;;;;;;;5014613;28;20476;-57
2022/11/08 09:59:44;;;;;;;3.08;1.67;;;;;;;;;;5015391;28;20025;-57
2022/11/08 10:02:30;;;;;;;3.92;1.40;;;;;;;;;;4998249;28;20022;-57
2022/11/08 10:05:33;;;;;;;5.60;1.77;;;;;;;;;;5018569;28;20067;-57
2022/11/08 10:08:39;;;;;;;;;;;;;;;;;;;;;
2022/11/08 10:11:30;;;;;;;2.58;1.60;;;;;;;;;;4994473;28;20054;-57
2022/11/08 10:14:24;;;;;;;2.78;1.90;;;;;;;;;;4956523;29;20481;-57
2022/11/08 10:17:14;;;;;;;3.10;1.35;;;;;;;;;;4939732;29;20039;-58
2022/11/08 10:20:21;;;;;;;2.42;1.45;;;;;;;;;;4939719;29;20485;-58
2022/11/08 10:26:22;;;;;;;4.22;2.20;;;;;;;;;;5001423;28;20033;-58
2022/11/08 10:29:00;;;;;;;3.22;1.77;;;;;;;;;;4994399;28;20092;-58
2022/11/08 10:32:04;;;;;;;3.08;1.30;;;;;;;;;;4999933;28;20037;-58
2022/11/08 10:34:57;;;;;;;4.63;1.80;;;;;;;;;;5021221;28;20042;-58
2022/11/08 10:37:41;;;;;;;1.90;1.20;;;;;;;;;;5028478;28;20459;-58
2022/11/08 10:40:34;;;;;;;1.88;1.10;;;;;;;;;;5047827;28;20044;-58
2022/11/08 10:49:44;;;;;;;2.45;1.15;;;;;;;;;;5012296;28;20030;-58
2022/11/08 10:52:18;;;;;;;4.10;1.77;;;;;;;;;;5006601;28;20030;-58
2022/11/08 10:55:13;;;;;;;2.50;1.30;;;;;;;;;;5008227;28;20035;-58
2022/11/08 10:57:59;;;;;;;2.78;1.92;;;;;;;;;;5011809;28;20068;-58
2022/11/08 11:00:54;;;;;;;3.17;1.83;;;;;;;;;;5048191;28;20037;-58
2022/11/08 11:03:35;;;;;;;2.67;1.65;;;;;;;;;;5047234;28;20125;-58
2022/11/08 11:06:32;;;;;;;5.07;1.33;;;;;;;;;;5047228;28;20344;-58
2022/11/08 11:12:15;;;;;;;3.30;1.63;;;;;;;;;;5046393;28;20439;-59
2022/11/08 11:17:55;;;;;;;7.13;1.48;;;;;;;;;;5046842;28;20028;-58
2022/11/08 11:20:36;;;;;;;2.22;1.20;;;;;;;;;;5032687;28;20044;-59
2022/11/08 11:29:20;;;;;;;8.15;1.55;;;;;;;;;;5047755;28;20165;-59
2022/11/08 11:34:59;;;;;;;2.00;1.15;;;;;;;;;;5026087;28;20045;-58
2022/11/08 11:37:55;;;;;;;5.50;1.55;;;;;;;;;;5012614;28;20058;-58
2022/11/08 11:46:54;;;;;;;2.80;1.10;;;;;;;;;;5066434;28;20070;-59
2022/11/08 11:49:38;;;;;;;3.53;1.23;;;;;;;;;;5066897;28;20050;-59
2022/11/08 11:52:26;;;;;;;4.57;1.75;;;;;;;;;;5050020;28;20037;-58
2022/11/08 11:58:17;;;;;;;2.72;1.23;;;;;;;;;;5086861;28;20035;-58
2022/11/08 12:00:57;;;;;;;3.40;1.30;;;;;;;;;;5087169;28;20037;-58
2022/11/08 12:03:24;;;;;;;2.03;1.27;;;;;;;;;;5102734;28;20040;-59
2022/11/08 12:06:23;;;;;;;2.90;1.30;;;;;;;;;;5108243;28;20028;-59
2022/11/08 12:09:25;;;;;;;4.03;1.55;;;;;;;;;;5083931;28;20037;-59
2022/11/08 12:12:13;;;;;;;4.25;2.05;;;;;;;;;;5060042;28;20048;-59
2022/11/08 12:15:01;;;;;;;2.35;1.13;;;;;;;;;;5045231;28;20117;-59
2022/11/08 12:17:54;;;;;;;2.50;1.60;;;;;;;;;;5046286;28;20052;-59
2022/11/08 12:20:35;;;;;;;4.45;1.90;;;;;;;;;;5026689;28;20058;-59
2022/11/08 12:26:37;;;;;;;10.73;2.88;;;;;;;;;;5042771;28;20025;-59
2022/11/08 12:32:19;;;;;;;4.07;2.15;;;;;;;;;;5036675;28;19912;-59
2022/11/08 12:35:10;;;;;;;3.88;2.45;;;;;;;;;;5045857;28;20040;-58
2022/11/08 12:37:57;;;;;;;4.30;2.03;;;;;;;;;;5069005;28;20036;-59
2022/11/08 12:40:48;;;;;;;5.45;1.80;;;;;;;;;;5068540;28;20024;-59
2022/11/08 12:44:04;;;;;;;;;;;;;;;;;;;;;
2022/11/08 12:46:49;;;;;;;3.92;1.70;;;;;;;;;;5069166;28;20037;-59
2022/11/08 12:49:45;;;;;;;4.15;1.23;;;;;;;;;;5051479;28;20028;-59
2022/11/08 12:52:30;;;;;;;1.83;1.08;;;;;;;;;;4972282;28;20035;-59
2022/11/08 12:58:06;;;;;;;3.08;1.38;;;;;;;;;;4990459;28;20033;-58
2022/11/08 13:00:51;;;;;;;3.10;1.50;;;;;;;;;;4989111;28;20035;-58
2022/11/08 13:03:36;;;;;;;4.28;1.40;;;;;;;;;;5043484;28;20486;-59
2022/11/08 13:06:20;;;;;;;;;;;;;;;;;;;;;
2022/11/08 13:09:14;;;;;;;1.50;0.80;;;;;;;;;;5088215;28;20108;-62
2022/11/08 13:11:51;;;;;;;;;;;;;;;;;;;;;
2022/11/08 13:14:36;;;;;;;2.47;0.82;;;;;;;;;;5090925;28;20087;-59
2022/11/08 13:23:43;;;;;;;;;;;;;;;;;;;;;
2022/11/08 13:26:41;;;;;;;2.17;1.25;;;;;;;;;;5107574;28;20055;-58
2022/11/08 13:29:45;;;;;;;3.45;1.45;;;;;;;;;;5061369;28;20055;-58
2022/11/08 13:32:31;;;;;;;2.60;1.75;;;;;;;;;;4995950;28;20106;-58
2022/11/08 13:35:21;;;;;;;4.47;1.80;;;;;;;;;;4995666;28;20034;-58
2022/11/08 13:38:02;;;;;;;2.50;1.38;;;;;;;;;;5072999;28;20036;-58
2022/11/08 13:44:01;;;;;;;2.42;1.27;;;;;;;;;;5097461;28;20040;-58
2022/11/08 13:46:44;;;;;;;7.50;2.20;;;;;;;;;;5081108;28;20502;-59
2022/11/08 13:49:34;;;;;;;1.75;1.00;;;;;;;;;;5098028;28;20028;-58
2022/11/08 13:52:19;;;;;;;3.95;1.70;;;;;;;;;;5079762;28;20488;-59
2022/11/08 13:55:12;;;;;;;3.60;1.70;;;;;;;;;;5097363;28;20067;-58
2022/11/08 14:04:35;;;;;;;2.33;1.23;;;;;;;;;;5096534;28;20055;-57
2022/11/08 14:07:34;;;;;;;;;;;;;;;;;;;;;
2022/11/08 14:13:16;;;;;;;2.17;0.77;;;;;;;;;;5067234;28;20052;-59
2022/11/08 14:16:07;;;;;;;1.17;0.65;;;;;;;;;;5097549;28;20062;-57
2022/11/08 14:18:47;;;;;;;4.63;0.50;;;;;;;;;;5096714;28;20530;-58
2022/11/08 14:25:09;;;;;;;3.47;0.93;;;;;;;;;;5034082;28;20064;-58
2022/11/08 14:27:55;;;;;;;2.47;0.90;;;;;;;;;;5017739;28;20568;-58
2022/11/08 14:30:25;;;;;;;1.30;0.70;;;;;;;;;;5067492;28;20469;-57
2022/11/08 14:33:30;;;;;;;3.08;1.30;;;;;;;;;;5096316;28;20461;-58
2022/11/08 14:36:20;;;;;;;2.50;0.90;;;;;;;;;;5096513;28;20054;-58
2022/11/08 14:42:13;;;;;;;4.40;1.05;;;;;;;;;;5096560;28;20085;-58
2022/11/08 14:45:12;;;;;;;1.88;1.17;;;;;;;;;;5095039;28;20478;-58
2022/11/08 14:48:05;;;;;;;2.10;0.93;;;;;;;;;;4999282;28;20473;-59
2022/11/08 14:56:25;;;;;;;4.20;1.55;;;;;;;;;;5085212;28;20038;-59
2022/11/08 14:59:14;;;;;;;3.33;0.80;;;;;;;;;;5060973;28;20061;-58
2022/11/08 15:01:55;;;;;;;2.38;1.27;;;;;;;;;;5014072;28;20381;-58
2022/11/08 15:07:57;;;;;;;3.42;1.58;;;;;;;;;;5014286;28;20049;-59
2022/11/08 15:10:41;;;;;;;2.17;1.20;;;;;;;;;;4997463;28;20133;-59
2022/11/08 15:13:52;;;;;;;;;;;;;;;;;;;;;
2022/11/08 15:16:34;;;;;;;5.38;1.67;;;;;;;;;;5017344;28;20103;-59
2022/11/08 15:19:31;;;;;;;2.50;1.80;;;;;;;;;;5078637;28;20024;-58
2022/11/08 15:22:42;;;;;;;;;;;;;;;;;;;;;
2022/11/08 15:25:37;;;;;;;7.03;3.25;;;;;;;;;;5069570;28;20098;-57
2022/11/08 15:28:41;;;;;;;11.77;2.38;;;;;;;;;;5095738;28;20031;-59
2022/11/08 15:31:30;;;;;;;3.83;2.70;;;;;;;;;;5077307;28;20541;-59
2022/11/08 15:34:05;;;;;;;7.57;3.28;;;;;;;;;;5077151;28;20111;-58
2022/11/08 15:36:48;;;;;;;8.10;3.15;;;;;;;;;;5095086;28;20054;-58
2022/11/08 15:39:36;;;;;;;4.18;3.25;;;;;;;;;;5094641;28;20034;-59
2022/11/08 15:43:05;;;;;;;;;;;;;;;;;;;;;
2022/11/08 15:45:41;;;;;;;5.57;2.72;;;;;;;;;;5052021;28;20498;-60
2022/11/08 15:48:42;;;;;;;6.93;3.22;;;;;;;;;;5094939;28;20040;-59
2022/11/08 15:51:21;;;;;;;;;;;;;;;;;;;;;
2022/11/08 15:54:03;;;;;;;3.67;2.80;;;;;;;;;;4990955;28;20053;-59
2022/11/08 15:59:57;;;;;;;4.25;2.75;;;;;;;;;;4989147;28;20062;-59
2022/11/08 16:05:48;;;;;;;5.22;2.95;;;;;;;;;;5025967;28;20035;-59
2022/11/08 16:12:01;;;;;;;5.53;2.80;;;;;;;;;;5031718;28;20120;-58
2022/11/08 16:17:33;;;;;;;7.65;4.65;;;;;;;;;;5088494;28;20520;-57
2022/11/08 16:20:33;;;;;;;7.65;3.83;;;;;;;;;;5095164;28;20066;-58
2022/11/08 16:26:21;;;;;;;5.90;4.22;;;;;;;;;;5070715;28;19962;-57
2022/11/08 16:29:10;;;;;;;8.18;4.00;;;;;;;;;;5081034;28;20039;-57
2022/11/08 16:31:46;;;;;;;5.90;3.75;;;;;;;;;;5047372;28;20047;-58
2022/11/08 16:34:15;;;;;;;4.68;3.72;;;;;;;;;;5076257;28;20462;-58
2022/11/08 16:37:03;;;;;;;5.10;3.90;;;;;;;;;;5061535;28;20059;-58
2022/11/08 16:39:41;;;;;;;4.97;3.67;;;;;;;;;;5094750;28;20028;-58
2022/11/08 16:42:31;;;;;;;4.45;2.50;;;;;;;;;;5062039;28;20043;-58
2022/11/08 16:45:22;;;;;;;6.20;3.50;;;;;;;;;;5095464;28;20111;-57
2022/11/08 16:47:56;;;;;;;7.10;5.13;;;;;;;;;;5075082;28;20474;-57
2022/11/08 16:51:19;;;;;;;8.63;4.22;;;;;;;;;;5094606;28;20028;-58
2022/11/08 16:53:44;;;;;;;6.47;3.88;;;;;;;;;;4992244;28;20077;-57
2022/11/08 16:56:36;;;;;;;;;;;;;;;;;;;;;
2022/11/08 16:59:38;;;;;;;;;;;;;;;;;;;;;
2022/11/08 17:08:58;;;;;;;9.80;4.05;;;;;;;;;;5091857;28;20024;-58
2022/11/08 17:11:56;;;;;;;5.85;3.60;;;;;;;;;;5085626;28;20106;-58
2022/11/08 17:14:51;;;;;;;5.35;3.70;;;;;;;;;;5094632;28;20036;-58
2022/11/08 17:17:46;;;;;;;;;;;;;;;;;;;;;
2022/11/08 17:23:35;;;;;;;7.05;3.35;;;;;;;;;;5031921;28;20108;-58
2022/11/08 17:26:33;;;;;;;6.93;4.25;;;;;;;;;;5094595;28;20078;-58
2022/11/08 17:31:52;;;;;;;9.35;4.30;;;;;;;;;;5097467;28;20085;-58
2022/11/08 17:34:40;;;;;;;13.75;4.18;;;;;;;;;;5095925;28;20090;-59
2022/11/08 17:37:44;;;;;;;5.45;4.07;;;;;;;;;;5093657;28;20369;-57
2022/11/08 17:43:32;;;;;;;8.00;3.88;;;;;;;;;;5051242;28;20032;-55
2022/11/08 17:46:10;;;;;;;6.22;3.72;;;;;;;;;;5075499;28;20474;-60
2022/11/08 17:51:41;;;;;;;5.68;4.68;;;;;;;;;;5074847;28;20031;-58
2022/11/08 17:54:48;;;;;;;6.20;3.15;;;;;;;;;;5074855;28;20040;-59
2022/11/08 17:57:36;;;;;;;5.30;3.95;;;;;;;;;;4981340;28;20549;-59
2022/11/08 18:00:09;;;;;;;10.35;5.15;;;;;;;;;;5014427;28;20088;-59
2022/11/08 18:02:35;;;;;;;7.70;3.22;;;;;;;;;;5015026;28;20026;-59
2022/11/08 18:05:17;;;;;;;6.63;4.38;;;;;;;;;;5014631;28;20108;-59
2022/11/08 18:11:50;;;;;;;9.43;5.28;;;;;;;;;;5081933;28;20541;-58
2022/11/08 18:14:03;;;;;;;7.95;3.88;;;;;;;;;;5082086;28;20047;-58
2022/11/08 18:17:04;;;;;;;;;;;;;;;;;;;;;
2022/11/08 18:19:55;;;;;;;5.90;3.47;;;;;;;;;;5076523;28;20036;-59
2022/11/08 18:22:30;;;;;;;5.35;4.05;;;;;;;;;;5097831;28;20404;-58
2022/11/08 18:25:22;;;;;;;6.80;3.58;;;;;;;;;;5097560;28;20107;-59
2022/11/08 18:28:25;;;;;;;;;;;;;;;;;;;;;
2022/11/08 18:31:06;;;;;;;5.47;4.05;;;;;;;;;;5057665;28;20028;-57
2022/11/08 18:34:07;;;;;;;;;;;;;;;;;;;;;
2022/11/08 18:42:35;;;;;;;;;;;;;;;;;;;;;
2022/11/08 18:45:07;;;;;;;5.82;4.43;;;;;;;;;;5096701;28;20111;-58
2022/11/08 18:48:20;;;;;;;8.50;4.72;;;;;;;;;;5095477;28;20481;-56
2022/11/08 18:51:09;;;;;;;9.05;5.13;;;;;;;;;;4993939;28;20066;-58
2022/11/08 18:53:35;;;;;;;7.80;5.32;;;;;;;;;;5040607;28;20524;-58
2022/11/08 18:56:15;;;;;;;10.20;6.90;;;;;;;;;;5096176;28;20032;-58
2022/11/08 18:59:13;;;;;;;14.32;8.70;;;;;;;;;;5096605;28;20052;-57
2022/11/08 19:05:01;;;;;;;36.50;14.35;;;;;;;;;;5051563;28;20115;-58
2022/11/08 19:10:26;;;;;;;25.63;13.60;;;;;;;;;;5053850;28;20447;-58
2022/11/08 19:13:24;;;;;;;28.95;10.43;;;;;;;;;;5053338;28;20474;-58
2022/11/08 19:16:27;;;;;;;12.95;6.10;;;;;;;;;;5046842;28;20057;-58
2022/11/08 19:25:04;;;;;;;7.93;4.72;;;;;;;;;;4955479;28;20555;-58
2022/11/08 19:27:48;;;;;;;12.90;4.82;;;;;;;;;;4962468;28;20034;-58
2022/11/08 19:30:23;;;;;;;5.95;3.80;;;;;;;;;;4994271;28;20042;-58
2022/11/08 19:32:58;;;;;;;7.68;5.13;;;;;;;;;;4997314;28;20045;-58
2022/11/08 19:38:31;;;;;;;6.85;4.75;;;;;;;;;;5013563;28;20033;-58
2022/11/08 19:41:25;;;;;;;6.70;4.25;;;;;;;;;;4997106;28;20467;-58
2022/11/08 19:47:27;;;;;;;;;;;;;;;;;;;;;
2022/11/08 19:50:24;;;;;;;5.32;3.97;;;;;;;;;;5051963;28;20486;-58
2022/11/08 19:56:23;;;;;;;4.85;3.53;;;;;;;;;;4973741;28;20031;-58
2022/11/08 19:59:18;;;;;;;6.53;4.03;;;;;;;;;;5042764;28;20033;-56
2022/11/08 20:02:03;;;;;;;;;;;;;;;;;;;;;
2022/11/08 20:11:09;;;;;;;5.28;3.33;;;;;;;;;;5090946;28;20028;-57
2022/11/08 20:14:07;;;;;;;5.25;3.22;;;;;;;;;;5058400;28;20044;-58
2022/11/08 20:16:57;;;;;;;4.10;3.50;;;;;;;;;;5058811;28;20084;-57
2022/11/08 20:19:52;;;;;;;;;;;;;;;;;;;;;
2022/11/08 20:23:05;;;;;;;5.43;3.65;;;;;;;;;;5091470;28;20028;-58
2022/11/08 20:28:57;;;;;;;4.63;3.35;;;;;;;;;;5032419;28;20040;-58
2022/11/08 20:32:14;;;;;;;5.80;3.38;;;;;;;;;;5015847;28;20204;-57
2022/11/08 20:35:17;;;;;;;4.63;3.20;;;;;;;;;;4973334;28;20540;-57
2022/11/08 20:38:11;;;;;;;5.13;3.42;;;;;;;;;;4992548;28;20510;-57
2022/11/08 20:41:05;;;;;;;6.85;3.78;;;;;;;;;;4995992;28;20029;-58
2022/11/08 20:43:44;;;;;;;5.40;3.33;;;;;;;;;;5009020;28;20034;-57
2022/11/08 20:46:45;;;;;;;;;;;;;;;;;;;;;
2022/11/08 20:52:33;;;;;;;4.05;2.97;;;;;;;;;;5012261;28;20026;-58
2022/11/08 20:55:31;;;;;;;;;;;;;;;;;;;;;
2022/11/08 20:58:24;;;;;;;4.78;3.28;;;;;;;;;;5074381;28;20032;-58
2022/11/08 21:01:45;;;;;;;;;;;;;;;;;;;;;
2022/11/08 21:05:02;;;;;;;5.07;3.10;;;;;;;;;;4960983;28;20045;-57
2022/11/08 21:07:37;;;;;;;6.25;3.38;;;;;;;;;;4968265;28;20039;-58
2022/11/08 21:10:31;;;;;;;;;;;;;;;;;;;;;
2022/11/08 21:16:22;;;;;;;3.70;2.55;;;;;;;;;;5078295;28;20501;-57
2022/11/08 21:22:43;;;;;;;5.72;3.05;;;;;;;;;;5068868;28;20028;-58
2022/11/08 21:25:48;;;;;;;;;;;;;;;;;;;;;
2022/11/08 21:28:24;;;;;;;3.50;2.67;;;;;;;;;;5067268;28;20115;-56
2022/11/08 21:31:00;;;;;;;4.20;2.33;;;;;;;;;;5059951;28;20059;-58
2022/11/08 21:33:38;;;;;;;5.53;2.67;;;;;;;;;;5077702;28;20040;-57
2022/11/08 21:36:14;;;;;;;4.22;3.30;;;;;;;;;;5078093;28;20021;-57
2022/11/08 21:39:03;;;;;;;4.80;2.95;;;;;;;;;;5077842;28;20021;-58
2022/11/08 21:42:16;;;;;;;5.93;3.65;;;;;;;;;;5040288;28;20119;-58
2022/11/08 21:45:26;;;;;;;6.68;5.10;;;;;;;;;;5041623;28;20044;-58
2022/11/08 21:48:22;;;;;;;7.57;5.43;;;;;;;;;;4996272;28;20038;-58
2022/11/08 21:54:01;;;;;;;6.25;3.38;;;;;;;;;;4982610;28;20042;-58
2022/11/08 21:56:38;;;;;;;5.20;3.25;;;;;;;;;;4979573;28;20029;-58
2022/11/08 21:59:21;;;;;;;7.70;3.35;;;;;;;;;;4961307;28;20132;-58
2022/11/08 22:02:29;;;;;;;3.30;2.90;;;;;;;;;;4985686;28;20030;-58
2022/11/08 22:05:14;;;;;;;3.70;2.80;;;;;;;;;;4989849;28;20038;-58
2022/11/08 22:11:08;;;;;;;6.00;2.58;;;;;;;;;;4989351;28;20058;-58
2022/11/08 22:17:02;;;;;;;;;;;;;;;;;;;;;
2022/11/08 22:19:47;;;;;;;4.97;2.33;;;;;;;;;;5069339;28;20064;-57
2022/11/08 22:22:22;;;;;;;4.30;2.63;;;;;;;;;;5049693;28;20029;-58
2022/11/08 22:25:28;;;;;;;6.70;2.97;;;;;;;;;;5050858;28;20095;-58
2022/11/08 22:31:37;;;;;;;4.38;2.55;;;;;;;;;;5090880;28;20127;-57
2022/11/08 22:37:30;;;;;;;7.80;2.80;;;;;;;;;;5009547;28;20150;-57
2022/11/08 22:40:15;;;;;;;3.65;2.78;;;;;;;;;;5031278;28;20040;-57
2022/11/08 22:46:01;;;;;;;3.75;2.67;;;;;;;;;;5029365;28;20131;-57
2022/11/08 22:48:43;;;;;;;3.25;2.67;;;;;;;;;;5029240;28;20089;-56
2022/11/08 22:51:42;;;;;;;4.50;3.28;;;;;;;;;;5090710;28;20048;-57
2022/11/08 22:54:47;;;;;;;4.93;2.60;;;;;;;;;;5090810;28;20029;-58
2022/11/08 22:57:32;;;;;;;3.92;3.05;;;;;;;;;;5049340;28;20104;-58
2022/11/08 23:00:20;;;;;;;5.00;2.80;;;;;;;;;;5072118;28;20062;-57
2022/11/08 23:38:37;;;;;;;3.85;2.85;;;;;;;;;;5089794;28;20058;-57
2022/11/08 23:44:39;;;;;;;4.55;2.83;;;;;;;;;;5089457;28;20040;-58
2022/11/08 23:51:04;;;;;;;3.55;2.97;;;;;;;;;;5047184;28;20089;-58
2022/11/08 23:53:58;;;;;;;7.18;2.45;;;;;;;;;;5030849;28;20048;-58
2022/11/08 23:56:43;;;;;;;3.10;2.15;;;;;;;;;;5085900;28;20052;-58
2022/11/08 23:59:13;;;;;;;3.42;2.45;;;;;;;;;;5090102;28;20028;-58
